Time;durP1;ratioP1;P1;durP2;ratioP2;P2;SDS_P1;SDS_P2;PMS_P1;PMS_P2;Temp;Humidity;BMP_temperature;BMP_pressure;BME280_temperature;BME280_humidity;BME280_pressure;Samples;Min_cycle;Max_cycle;Signal;HPM_P1;HPM_P2
2022/11/22 00:01:01;;;;;;;15.70;4.22;;;7.50;99.90;;;;;;5055157;28;20036;-78
2022/11/22 00:03:27;;;;;;;20.02;4.47;;;7.40;99.90;;;;;;5055422;28;20384;-78
2022/11/22 00:05:52;;;;;;;14.30;4.00;;;7.40;99.90;;;;;;5072753;28;20048;-78
2022/11/22 00:08:18;;;;;;;17.17;4.35;;;7.40;99.90;;;;;;5054281;28;20130;-78
2022/11/22 00:10:43;;;;;;;16.70;4.68;;;7.40;99.90;;;;;;5072836;28;20040;-78
2022/11/22 00:13:09;;;;;;;20.30;4.80;;;7.40;99.90;;;;;;5055062;28;20033;-78
2022/11/22 00:15:35;;;;;;;19.38;4.57;;;7.40;99.90;;;;;;5055046;28;20068;-78
2022/11/22 00:18:00;;;;;;;14.23;4.47;;;7.40;99.90;;;;;;5073259;28;20044;-78
2022/11/22 00:20:26;;;;;;;15.38;4.43;;;7.40;99.90;;;;;;5072329;28;20029;-78
2022/11/22 00:22:52;;;;;;;13.43;4.32;;;7.40;99.90;;;;;;5072934;28;20029;-77
2022/11/22 00:25:17;;;;;;;15.38;4.82;;;7.40;99.90;;;;;;5038497;28;20056;-78
2022/11/22 00:27:43;;;;;;;15.23;5.03;;;7.40;99.90;;;;;;5054531;28;20084;-77
2022/11/22 00:30:09;;;;;;;14.65;4.60;;;7.40;99.90;;;;;;5054796;28;20441;-77
2022/11/22 00:32:35;;;;;;;17.48;5.13;;;7.50;99.90;;;;;;5038411;28;20082;-77
2022/11/22 00:35:01;;;;;;;16.15;5.07;;;7.60;99.90;;;;;;5072471;28;20393;-78
2022/11/22 00:37:27;;;;;;;14.85;4.93;;;7.70;99.90;;;;;;5038079;28;20025;-78
2022/11/22 00:39:52;;;;;;;17.13;5.20;;;7.70;99.90;;;;;;5072890;28;20067;-78
2022/11/22 00:42:18;;;;;;;14.00;5.20;;;7.80;99.90;;;;;;5054532;28;20036;-78
2022/11/22 00:44:44;;;;;;;14.50;4.60;;;7.70;99.90;;;;;;5037993;28;20082;-78
2022/11/22 00:47:09;;;;;;;16.00;5.07;;;7.90;99.90;;;;;;5072418;28;20029;-78
2022/11/22 00:49:35;;;;;;;10.63;4.80;;;7.90;99.90;;;;;;5054583;28;20033;-78
2022/11/22 00:52:01;;;;;;;11.32;5.22;;;7.90;99.90;;;;;;5054146;28;20037;-78
2022/11/22 00:54:26;;;;;;;15.85;4.25;;;8.00;99.90;;;;;;5054677;28;20385;-78
2022/11/22 00:56:52;;;;;;;11.30;5.07;;;8.00;99.90;;;;;;5072469;28;20449;-78
2022/11/22 00:59:17;;;;;;;14.85;4.53;;;8.10;99.90;;;;;;5072655;28;20354;-78
2022/11/22 01:01:43;;;;;;;16.25;4.80;;;8.10;99.90;;;;;;5038115;28;20033;-78
2022/11/22 01:04:09;;;;;;;13.52;4.47;;;8.10;99.90;;;;;;5072332;28;20040;-78
2022/11/22 01:06:34;;;;;;;14.35;4.63;;;8.10;99.90;;;;;;5054137;28;20051;-79
2022/11/22 01:09:00;;;;;;;14.57;4.63;;;8.20;99.90;;;;;;5037823;28;20033;-78
2022/11/22 01:11:26;;;;;;;11.85;4.68;;;8.20;99.90;;;;;;5037966;28;20381;-78
2022/11/22 01:13:52;;;;;;;10.63;4.10;;;8.20;99.90;;;;;;5054860;28;20063;-78
2022/11/22 01:16:17;;;;;;;9.57;3.83;;;8.20;99.90;;;;;;5054421;28;20032;-78
2022/11/22 01:18:44;;;;;;;11.55;4.18;;;8.30;99.90;;;;;;5073178;28;20028;-78
2022/11/22 01:21:10;;;;;;;9.05;4.10;;;8.30;99.90;;;;;;5061183;28;20028;-77
2022/11/22 01:23:36;;;;;;;9.10;4.15;;;8.40;99.90;;;;;;5078744;28;20051;-77
2022/11/22 01:26:02;;;;;;;9.52;3.97;;;8.40;99.90;;;;;;5077739;28;20465;-77
2022/11/22 01:28:28;;;;;;;11.55;3.90;;;8.40;99.90;;;;;;5057896;28;20049;-77
2022/11/22 01:30:54;;;;;;;10.18;3.92;;;8.40;99.90;;;;;;5075821;28;20098;-77
2022/11/22 01:33:20;;;;;;;15.02;4.97;;;8.50;99.90;;;;;;5075524;28;20028;-77
2022/11/22 01:35:46;;;;;;;10.60;4.35;;;8.50;99.90;;;;;;5075849;28;20041;-77
2022/11/22 01:38:12;;;;;;;10.45;4.55;;;8.40;99.90;;;;;;5057774;28;20418;-77
2022/11/22 01:40:38;;;;;;;11.43;4.25;;;8.40;99.90;;;;;;5041447;28;20039;-77
2022/11/22 01:43:10;;;;;;;12.00;4.40;;;8.40;99.90;;;;;;5075828;28;20033;-77
2022/11/22 01:45:40;;;;;;;12.90;5.00;;;8.50;99.90;;;;;;5057827;28;20040;-77
2022/11/22 01:48:11;;;;;;;11.05;4.40;;;8.50;99.90;;;;;;5075846;28;20037;-77
2022/11/22 01:50:40;;;;;;;11.18;4.18;;;8.40;99.90;;;;;;5074849;28;20024;-77
2022/11/22 01:53:24;;;;;;;18.17;4.93;;;8.40;99.90;;;;;;5075536;28;20025;-78
2022/11/22 01:55:51;;;;;;;14.00;4.53;;;8.40;99.90;;;;;;5059898;28;20032;-77
2022/11/22 01:58:18;;;;;;;13.32;4.70;;;8.40;99.90;;;;;;5057626;28;20029;-77
2022/11/22 02:00:44;;;;;;;10.55;4.28;;;8.40;99.90;;;;;;5057327;28;20028;-77
2022/11/22 02:03:12;;;;;;;10.77;4.40;;;8.40;99.90;;;;;;5040886;28;20035;-77
2022/11/22 02:05:38;;;;;;;15.38;4.40;;;8.40;99.90;;;;;;5074885;28;20029;-77
2022/11/22 02:08:24;;;;;;;8.07;3.72;;;8.40;99.90;;;;;;5075171;28;20052;-77
2022/11/22 02:10:52;;;;;;;13.50;4.30;;;8.40;99.90;;;;;;5075349;28;20031;-78
2022/11/22 02:13:19;;;;;;;11.27;4.13;;;8.50;99.90;;;;;;5056920;28;20354;-78
2022/11/22 02:15:45;;;;;;;9.95;4.00;;;8.50;99.90;;;;;;5074924;28;20460;-78
2022/11/22 02:18:10;;;;;;;11.85;3.45;;;8.50;99.90;;;;;;5040387;28;20036;-78
2022/11/22 02:20:38;;;;;;;12.25;3.58;;;8.50;99.90;;;;;;5023243;28;20036;-78
2022/11/22 02:23:15;;;;;;;8.48;3.53;;;8.50;99.90;;;;;;5074887;28;20465;-78
2022/11/22 02:25:40;;;;;;;10.95;3.40;;;8.50;99.90;;;;;;5074716;28;20032;-78
2022/11/22 02:28:09;;;;;;;9.13;3.78;;;8.60;99.90;;;;;;5074844;28;20067;-78
2022/11/22 02:30:39;;;;;;;12.95;3.90;;;8.50;99.90;;;;;;5056359;28;20032;-78
2022/11/22 02:33:05;;;;;;;9.25;3.55;;;8.50;99.90;;;;;;5039957;28;20056;-78
2022/11/22 02:35:31;;;;;;;8.13;3.70;;;8.50;99.90;;;;;;5074751;28;20507;-78
2022/11/22 02:38:04;;;;;;;11.85;3.70;;;8.50;99.90;;;;;;5074258;28;20441;-78
2022/11/22 02:40:44;;;;;;;7.38;3.13;;;8.50;99.90;;;;;;5074886;28;20036;-79
2022/11/22 02:43:17;;;;;;;9.75;3.20;;;8.50;99.90;;;;;;5074654;28;20036;-79
2022/11/22 02:45:43;;;;;;;10.40;3.55;;;8.50;99.90;;;;;;5074706;28;20477;-79
2022/11/22 02:48:12;;;;;;;10.50;3.33;;;8.50;99.90;;;;;;5023465;28;20024;-79
2022/11/22 02:50:38;;;;;;;16.92;4.07;;;8.50;99.90;;;;;;5075710;22;20037;-73
2022/11/22 02:53:05;;;;;;;17.13;3.45;;;8.50;99.90;;;;;;5115513;28;20486;-79
2022/11/22 02:55:31;;;;;;;11.60;3.00;;;8.50;99.90;;;;;;5081551;28;20040;-78
2022/11/22 02:57:57;;;;;;;13.18;3.20;;;8.50;99.90;;;;;;5128433;22;20071;-73
2022/11/22 03:00:23;;;;;;;9.73;3.47;;;8.50;99.90;;;;;;5116169;28;20387;-77
2022/11/22 03:02:48;;;;;;;8.85;2.97;;;8.50;99.90;;;;;;5112781;22;20114;-78
2022/11/22 03:05:14;;;;;;;11.93;3.40;;;8.50;99.90;;;;;;5124796;22;20059;-73
2022/11/22 03:07:40;;;;;;;11.82;3.17;;;8.50;99.90;;;;;;5114702;28;20042;-78
2022/11/22 03:10:06;;;;;;;12.50;3.03;;;8.50;99.90;;;;;;5114880;28;20459;-78
2022/11/22 03:12:32;;;;;;;13.45;3.38;;;8.50;99.90;;;;;;5112342;22;20476;-78
2022/11/22 03:14:57;;;;;;;12.38;2.67;;;8.50;99.90;;;;;;5076029;28;20046;-78
2022/11/22 03:17:23;;;;;;;13.18;2.55;;;8.40;99.90;;;;;;5091052;22;20056;-74
2022/11/22 03:19:49;;;;;;;8.75;2.58;;;8.40;99.90;;;;;;5094268;28;20036;-79
2022/11/22 03:22:14;;;;;;;13.73;2.63;;;8.40;99.90;;;;;;5075901;28;20035;-79
2022/11/22 03:24:40;;;;;;;12.48;2.45;;;8.40;99.90;;;;;;5094432;28;20040;-78
2022/11/22 03:27:06;;;;;;;11.73;2.53;;;8.40;99.90;;;;;;5094114;28;20047;-78
2022/11/22 03:29:31;;;;;;;13.85;2.75;;;8.30;99.90;;;;;;5075664;28;20039;-78
2022/11/22 03:31:57;;;;;;;10.73;2.33;;;8.30;99.90;;;;;;5094068;28;20062;-78
2022/11/22 03:34:22;;;;;;;13.50;2.50;;;8.30;99.90;;;;;;5076226;28;20039;-78
2022/11/22 03:36:48;;;;;;;8.90;1.88;;;8.20;99.90;;;;;;5094084;28;20039;-78
2022/11/22 03:39:14;;;;;;;15.80;2.15;;;8.20;99.90;;;;;;5094045;28;20562;-78
2022/11/22 03:41:39;;;;;;;14.20;2.45;;;8.20;99.90;;;;;;5075621;28;20111;-78
2022/11/22 03:44:05;;;;;;;14.93;1.88;;;8.20;99.90;;;;;;5075214;28;20028;-78
2022/11/22 03:46:31;;;;;;;11.93;2.03;;;8.20;99.90;;;;;;5093708;28;20474;-78
2022/11/22 03:48:57;;;;;;;17.40;2.70;;;8.10;99.90;;;;;;5093723;28;20036;-78
2022/11/22 03:51:22;;;;;;;14.45;2.25;;;8.10;99.90;;;;;;5093344;28;20024;-78
2022/11/22 03:53:48;;;;;;;18.77;2.70;;;8.10;99.90;;;;;;5075286;28;20353;-78
2022/11/22 03:56:13;;;;;;;13.90;2.08;;;8.10;99.90;;;;;;5042619;28;20043;-78
2022/11/22 03:58:39;;;;;;;16.33;2.25;;;8.10;99.90;;;;;;5093281;28;20056;-79
2022/11/22 04:01:05;;;;;;;15.05;2.10;;;8.10;99.90;;;;;;5076088;28;20051;-78
2022/11/22 04:03:30;;;;;;;16.50;1.88;;;8.00;99.90;;;;;;5075325;28;20024;-78
2022/11/22 04:05:56;;;;;;;12.05;1.67;;;8.00;99.90;;;;;;5093103;28;20112;-78
2022/11/22 04:08:22;;;;;;;14.25;2.85;;;8.00;99.90;;;;;;5058949;28;20028;-78
2022/11/22 04:10:49;;;;;;;12.63;1.85;;;8.00;99.90;;;;;;5075247;28;20387;-78
2022/11/22 04:13:14;;;;;;;15.55;2.50;;;8.00;99.90;;;;;;5075336;28;20020;-78
2022/11/22 04:15:40;;;;;;;12.77;1.80;;;8.00;99.90;;;;;;5058576;28;20143;-77
2022/11/22 04:18:08;;;;;;;24.90;2.20;;;8.00;99.90;;;;;;5071400;28;20504;-78
2022/11/22 04:23:20;;;;;;;13.90;1.70;;;8.00;99.90;;;;;;5072441;28;20043;-78
2022/11/22 04:25:51;;;;;;;14.45;1.90;;;8.00;99.90;;;;;;5073251;28;20036;-78
2022/11/22 04:28:23;;;;;;;19.92;2.03;;;8.00;99.90;;;;;;5073068;28;20028;-78
2022/11/22 04:33:35;;;;;;;14.70;1.80;;;7.90;99.90;;;;;;5073443;28;20031;-78
2022/11/22 04:36:01;;;;;;;18.52;1.83;;;7.90;99.90;;;;;;5072982;28;20035;-78
2022/11/22 04:38:26;;;;;;;12.38;2.05;;;7.90;99.90;;;;;;5091140;28;20123;-77
2022/11/22 04:40:52;;;;;;;12.57;1.83;;;7.90;99.90;;;;;;5090949;28;20115;-77
2022/11/22 04:46:05;;;;;;;15.88;1.83;;;7.90;99.90;;;;;;5072987;28;20098;-77
2022/11/22 04:48:31;;;;;;;12.18;1.80;;;7.90;99.90;;;;;;5054949;28;20369;-77
2022/11/22 04:53:40;;;;;;;13.38;1.95;;;7.90;99.90;;;;;;5073639;28;20059;-77
2022/11/22 04:56:07;;;;;;;18.50;2.78;;;7.90;99.90;;;;;;5077024;28;20525;-77
2022/11/22 04:58:32;;;;;;;16.67;2.40;;;7.90;99.90;;;;;;5075459;28;20028;-77
2022/11/22 05:00:58;;;;;;;14.13;2.08;;;7.90;99.90;;;;;;5075189;28;20032;-77
2022/11/22 05:03:23;;;;;;;8.90;1.30;;;7.90;99.90;;;;;;5092238;28;20036;-77
2022/11/22 05:05:49;;;;;;;15.07;1.70;;;7.90;99.90;;;;;;5076257;28;20048;-77
2022/11/22 05:08:15;;;;;;;11.80;1.73;;;7.90;99.90;;;;;;5058932;28;20025;-77
2022/11/22 05:10:56;;;;;;;13.73;1.98;;;7.90;99.90;;;;;;5076180;28;20061;-77
2022/11/22 05:13:33;;;;;;;16.33;1.58;;;7.90;99.90;;;;;;5076508;28;20024;-78
2022/11/22 05:16:00;;;;;;;12.82;2.47;;;7.90;99.90;;;;;;5076920;28;20040;-77
2022/11/22 05:18:26;;;;;;;10.27;1.45;;;7.90;99.90;;;;;;5074651;28;20139;-77
2022/11/22 05:20:53;;;;;;;11.52;1.73;;;7.90;99.90;;;;;;5076321;28;20482;-77
2022/11/22 05:26:08;;;;;;;13.98;1.65;;;7.90;99.90;;;;;;5076345;28;20040;-78
2022/11/22 05:28:35;;;;;;;13.27;1.55;;;7.80;99.90;;;;;;5075803;28;20056;-77
2022/11/22 05:31:12;;;;;;;12.93;1.92;;;7.80;99.90;;;;;;5058978;28;20036;-77
2022/11/22 05:33:40;;;;;;;15.00;1.85;;;7.80;99.90;;;;;;5075806;28;20077;-78
2022/11/22 05:36:07;;;;;;;14.75;2.20;;;7.90;99.90;;;;;;5074910;28;20028;-78
2022/11/22 05:38:36;;;;;;;14.82;1.58;;;7.90;99.90;;;;;;5058612;28;20402;-77
2022/11/22 05:41:13;;;;;;;11.88;1.60;;;7.90;99.90;;;;;;5074780;28;20108;-78
2022/11/22 05:43:39;;;;;;;15.07;1.70;;;7.90;99.90;;;;;;5091925;28;20123;-78
2022/11/22 05:46:05;;;;;;;12.85;1.33;;;7.80;99.90;;;;;;5057797;28;20083;-78
2022/11/22 05:48:38;;;;;;;9.48;1.65;;;7.80;99.90;;;;;;5091926;28;20044;-78
2022/11/22 05:51:10;;;;;;;11.48;1.42;;;7.90;99.90;;;;;;5091025;28;20028;-78
2022/11/22 05:53:36;;;;;;;13.20;2.33;;;8.00;99.90;;;;;;5075871;28;20024;-79
2022/11/22 05:56:07;;;;;;;13.18;2.05;;;8.00;99.90;;;;;;5091381;28;20540;-78
2022/11/22 05:58:33;;;;;;;12.25;1.98;;;8.00;99.90;;;;;;5074950;28;20032;-78
2022/11/22 06:01:25;;;;;;;14.25;2.03;;;8.00;99.90;;;;;;5076087;28;20103;-78
2022/11/22 06:03:51;;;;;;;13.02;1.42;;;7.90;99.90;;;;;;5073598;28;20048;-78
2022/11/22 06:06:17;;;;;;;10.60;2.05;;;8.00;99.90;;;;;;5073549;28;20465;-78
2022/11/22 06:08:46;;;;;;;15.90;2.15;;;7.90;99.90;;;;;;5074287;28;20082;-77
2022/11/22 06:11:20;;;;;;;13.52;1.20;;;7.80;99.90;;;;;;5074737;28;20047;-78
2022/11/22 06:13:49;;;;;;;13.10;1.40;;;7.80;99.90;;;;;;5076734;28;20024;-79
2022/11/22 06:16:15;;;;;;;11.60;1.40;;;7.80;99.90;;;;;;5075514;28;20107;-77
2022/11/22 06:18:41;;;;;;;10.40;1.17;;;7.80;99.90;;;;;;5077675;28;20094;-78
2022/11/22 06:21:12;;;;;;;11.02;1.52;;;7.90;99.90;;;;;;5059117;28;20032;-79
2022/11/22 06:23:38;;;;;;;11.05;1.17;;;7.90;99.90;;;;;;5058172;28;20101;-78
2022/11/22 06:26:11;;;;;;;11.63;1.92;;;7.90;99.90;;;;;;5057324;28;20127;-78
2022/11/22 06:28:37;;;;;;;;;;;8.00;99.90;;;;;;5074669;28;20453;-78
2022/11/22 06:31:15;;;;;;;11.70;1.85;;;8.00;99.90;;;;;;5074893;28;19957;-78
2022/11/22 06:33:41;;;;;;;10.65;1.23;;;7.90;99.90;;;;;;5073429;28;20392;-79
2022/11/22 06:36:11;;;;;;;13.13;1.60;;;7.90;99.90;;;;;;5073531;28;20029;-78
2022/11/22 06:38:38;;;;;;;11.50;1.38;;;7.90;99.90;;;;;;5074115;28;20480;-78
2022/11/22 06:41:09;;;;;;;8.82;1.58;;;7.90;99.90;;;;;;5075008;28;20021;-78
2022/11/22 06:43:36;;;;;;;15.02;1.75;;;7.90;99.90;;;;;;5074601;28;20465;-78
2022/11/22 06:46:03;;;;;;;11.25;1.50;;;7.90;99.90;;;;;;5073021;28;20036;-78
2022/11/22 06:48:32;;;;;;;9.25;1.45;;;7.90;99.90;;;;;;5074658;28;20043;-78
2022/11/22 06:51:09;;;;;;;9.32;1.00;;;8.00;99.90;;;;;;5074301;28;20112;-77
2022/11/22 06:53:35;;;;;;;11.15;1.60;;;7.90;99.90;;;;;;5074226;28;20090;-78
2022/11/22 06:56:22;;;;;;;13.40;1.65;;;7.90;99.90;;;;;;5073156;28;20056;-78
2022/11/22 06:58:49;;;;;;;9.25;1.73;;;7.90;99.90;;;;;;5062568;28;20054;-78
2022/11/22 07:01:27;;;;;;;13.90;2.03;;;7.90;99.90;;;;;;5056095;28;20052;-77
2022/11/22 07:03:56;;;;;;;10.43;1.23;;;7.90;99.90;;;;;;5074543;28;20441;-78
2022/11/22 07:06:27;;;;;;;11.73;1.65;;;7.90;99.90;;;;;;5073991;28;20043;-77
2022/11/22 07:08:52;;;;;;;14.52;1.80;;;7.90;99.90;;;;;;5074437;28;20036;-78
2022/11/22 07:11:23;;;;;;;15.07;2.00;;;8.00;99.90;;;;;;5074926;28;20040;-78
2022/11/22 07:13:50;;;;;;;13.68;1.98;;;8.00;99.90;;;;;;5074459;28;20025;-77
2022/11/22 07:16:18;;;;;;;11.52;1.77;;;8.00;99.90;;;;;;5072723;28;20331;-78
2022/11/22 07:18:44;;;;;;;12.48;1.58;;;8.00;99.90;;;;;;5087848;28;20160;-77
2022/11/22 07:21:12;;;;;;;8.88;1.33;;;7.90;99.90;;;;;;5075917;28;20126;-77
2022/11/22 07:23:39;;;;;;;13.65;2.17;;;7.90;99.90;;;;;;5076049;28;20031;-78
2022/11/22 07:26:05;;;;;;;12.00;1.67;;;7.90;99.90;;;;;;5042915;28;20479;-77
2022/11/22 07:28:31;;;;;;;10.93;1.60;;;7.80;99.90;;;;;;5075929;28;20149;-77
2022/11/22 07:31:06;;;;;;;10.65;1.60;;;7.80;99.90;;;;;;5093992;28;20436;-77
2022/11/22 07:33:32;;;;;;;12.55;2.13;;;7.90;99.90;;;;;;5075655;28;20040;-78
2022/11/22 07:36:09;;;;;;;14.60;2.38;;;7.90;99.90;;;;;;5075977;28;20031;-79
2022/11/22 07:38:35;;;;;;;9.07;1.23;;;7.90;99.90;;;;;;5076187;28;20028;-78
2022/11/22 07:41:02;;;;;;;11.50;2.00;;;7.90;99.90;;;;;;5076034;28;20386;-78
2022/11/22 07:43:28;;;;;;;14.95;1.98;;;7.90;99.90;;;;;;5075960;28;20483;-78
2022/11/22 07:45:59;;;;;;;15.57;1.65;;;7.90;99.90;;;;;;5042887;28;20032;-78
2022/11/22 07:48:25;;;;;;;10.27;2.03;;;7.80;99.90;;;;;;5094346;28;20024;-78
2022/11/22 07:50:50;;;;;;;12.57;2.13;;;7.80;99.90;;;;;;5076685;28;20078;-79
2022/11/22 07:53:16;;;;;;;14.13;1.70;;;7.80;99.90;;;;;;5096701;28;20077;-78
2022/11/22 07:55:42;;;;;;;13.75;2.40;;;7.80;99.90;;;;;;5047944;28;20035;-79
2022/11/22 07:58:07;;;;;;;13.57;1.92;;;7.80;99.90;;;;;;5081647;28;20174;-78
2022/11/22 08:00:33;;;;;;;10.73;1.92;;;7.80;99.90;;;;;;5059446;28;20513;-79
2022/11/22 08:02:59;;;;;;;16.63;1.50;;;7.70;99.90;;;;;;5058868;28;20174;-79
2022/11/22 08:05:25;;;;;;;13.45;2.05;;;7.80;99.90;;;;;;5093826;28;20043;-79
2022/11/22 08:07:52;;;;;;;12.00;1.55;;;7.80;99.90;;;;;;5075364;28;20123;-79
2022/11/22 08:10:18;;;;;;;9.68;1.85;;;7.80;99.90;;;;;;5075465;28;20028;-79
2022/11/22 08:12:44;;;;;;;8.32;1.70;;;7.80;99.90;;;;;;5058653;28;20117;-79
2022/11/22 08:15:12;;;;;;;12.15;1.60;;;7.80;99.90;;;;;;5076023;28;20474;-79
2022/11/22 08:17:38;;;;;;;12.40;1.75;;;7.80;99.90;;;;;;5058487;28;20104;-80
2022/11/22 08:20:05;;;;;;;8.63;1.50;;;7.80;99.90;;;;;;5075833;28;20089;-79
2022/11/22 08:22:31;;;;;;;10.85;1.35;;;7.80;99.90;;;;;;5075776;28;20034;-79
2022/11/22 08:24:56;;;;;;;14.23;1.60;;;7.80;99.90;;;;;;5058809;28;20103;-79
2022/11/22 08:27:24;;;;;;;11.00;1.10;;;7.90;99.90;;;;;;5075179;28;20028;-79
2022/11/22 08:29:49;;;;;;;9.52;1.52;;;7.90;99.90;;;;;;5074241;28;20118;-80
2022/11/22 08:32:15;;;;;;;9.75;2.10;;;7.90;99.90;;;;;;5075788;28;20131;-79
2022/11/22 08:34:40;;;;;;;8.95;1.98;;;7.80;99.90;;;;;;5074944;28;20056;-80
2022/11/22 08:37:06;;;;;;;15.55;2.45;;;7.90;99.90;;;;;;5074842;28;20528;-81
2022/11/22 08:39:32;;;;;;;12.50;2.00;;;7.90;99.90;;;;;;5075124;28;20441;-81
2022/11/22 08:41:57;;;;;;;15.48;1.98;;;7.90;99.90;;;;;;5075084;28;20032;-79
2022/11/22 08:44:23;;;;;;;11.32;1.60;;;7.80;99.90;;;;;;5075795;28;20035;-81
2022/11/22 08:46:49;;;;;;;15.50;1.42;;;7.90;99.90;;;;;;5075677;28;20078;-80
2022/11/22 08:49:14;;;;;;;11.88;1.30;;;7.90;99.90;;;;;;5058311;28;20024;-80
2022/11/22 08:51:43;;;;;;;8.65;1.40;;;7.90;99.90;;;;;;5075838;28;20351;-81
2022/11/22 08:54:13;;;;;;;13.60;1.30;;;7.90;99.90;;;;;;5075546;28;20482;-82
2022/11/22 08:56:39;;;;;;;9.50;1.30;;;7.90;99.90;;;;;;5074830;28;20032;-81
2022/11/22 08:59:05;;;;;;;10.57;2.80;;;8.00;99.90;;;;;;5075603;28;20115;-82
2022/11/22 09:01:31;;;;;;;7.82;1.48;;;8.00;99.90;;;;;;5075347;28;20381;-81
2022/11/22 09:03:57;;;;;;;11.85;1.58;;;8.00;99.90;;;;;;5074932;28;20435;-81
2022/11/22 09:06:22;;;;;;;10.32;1.30;;;8.00;99.90;;;;;;5093222;28;20043;-80
2022/11/22 09:08:48;;;;;;;9.25;1.02;;;8.00;99.90;;;;;;5074906;28;20028;-81
2022/11/22 09:11:16;;;;;;;7.07;0.90;;;8.10;99.90;;;;;;5075349;28;20030;-81
2022/11/22 09:13:42;;;;;;;10.82;1.35;;;8.00;99.90;;;;;;5093048;28;20062;-82
2022/11/22 09:16:14;;;;;;;8.25;0.85;;;8.00;99.90;;;;;;5093240;28;20375;-81
2022/11/22 09:18:39;;;;;;;12.23;1.63;;;8.00;99.90;;;;;;5074894;28;20048;-81
2022/11/22 09:21:08;;;;;;;9.90;1.20;;;8.00;99.90;;;;;;5074849;28;20073;-82
2022/11/22 09:23:34;;;;;;;9.82;1.67;;;8.10;99.90;;;;;;5074584;28;20398;-81
2022/11/22 09:26:06;;;;;;;9.63;1.30;;;8.10;99.90;;;;;;5058268;28;20047;-81
2022/11/22 09:28:32;;;;;;;9.20;1.85;;;8.10;99.90;;;;;;5094363;28;20024;-81
2022/11/22 09:31:01;;;;;;;7.78;1.08;;;8.10;99.90;;;;;;5077773;28;20051;-81
2022/11/22 09:33:27;;;;;;;10.40;1.20;;;8.10;99.90;;;;;;5077492;28;20456;-81
2022/11/22 09:36:05;;;;;;;10.27;1.20;;;8.10;99.90;;;;;;5075084;28;20043;-80
2022/11/22 09:38:32;;;;;;;6.57;1.13;;;8.10;99.90;;;;;;5092628;28;20490;-82
2022/11/22 09:41:01;;;;;;;6.43;1.50;;;8.20;99.90;;;;;;5094340;28;20028;-81
2022/11/22 09:43:38;;;;;;;8.85;0.98;;;8.20;99.90;;;;;;5096782;28;20077;-81
2022/11/22 09:46:18;;;;;;;12.23;1.80;;;8.20;99.90;;;;;;5096925;28;20039;-82
2022/11/22 09:49:10;;;;;;;10.68;1.70;;;8.20;99.90;;;;;;5078720;28;20054;-81
2022/11/22 09:51:41;;;;;;;9.90;1.35;;;8.20;99.90;;;;;;5097364;28;20375;-81
2022/11/22 09:54:11;;;;;;;15.48;1.70;;;8.20;99.90;;;;;;5079088;28;20028;-81
2022/11/22 09:56:38;;;;;;;8.98;1.52;;;8.20;99.90;;;;;;5097348;28;20052;-81
2022/11/22 09:59:09;;;;;;;9.32;1.35;;;8.10;99.90;;;;;;5098641;28;20189;-82
2022/11/22 10:01:49;;;;;;;9.55;1.20;;;8.10;99.90;;;;;;5081833;28;20352;-81
2022/11/22 10:04:32;;;;;;;9.20;1.42;;;8.30;99.90;;;;;;5101076;28;20024;-81
2022/11/22 10:07:38;;;;;;;11.77;1.42;;;8.30;99.90;;;;;;5082339;28;20032;-82
2022/11/22 10:10:10;;;;;;;11.95;1.75;;;8.30;99.90;;;;;;4979165;28;20034;-81
2022/11/22 10:13:08;;;;;;;13.10;1.10;;;8.30;99.90;;;;;;4994028;28;20026;-79
2022/11/22 10:15:57;;;;;;;6.85;1.10;;;8.40;99.90;;;;;;5048128;28;20040;-81
2022/11/22 10:18:44;;;;;;;7.43;1.10;;;8.40;99.90;;;;;;5096745;28;20055;-81
2022/11/22 10:21:13;;;;;;;9.20;1.58;;;8.40;99.90;;;;;;5095714;28;20047;-81
2022/11/22 10:23:43;;;;;;;6.40;1.00;;;8.40;99.90;;;;;;5077574;28;20020;-81
2022/11/22 10:26:33;;;;;;;8.18;1.08;;;8.40;99.90;;;;;;5077384;28;20032;-81
2022/11/22 10:29:22;;;;;;;8.15;0.95;;;8.50;99.90;;;;;;5095528;28;20047;-81
2022/11/22 10:32:10;;;;;;;10.48;1.30;;;8.50;99.90;;;;;;5077752;28;20020;-81
2022/11/22 10:34:59;;;;;;;6.25;1.17;;;8.60;99.90;;;;;;5077940;28;20055;-81
2022/11/22 10:37:44;;;;;;;9.00;1.17;;;8.60;99.90;;;;;;5063925;28;20036;-81
2022/11/22 10:40:28;;;;;;;8.05;1.33;;;8.60;99.90;;;;;;5077762;28;20032;-81
2022/11/22 10:43:39;;;;;;;4.40;1.15;;;8.60;99.90;;;;;;5095192;28;20028;-82
2022/11/22 10:46:16;;;;;;;6.55;1.10;;;8.70;99.90;;;;;;5077131;28;20472;-82
2022/11/22 10:49:03;;;;;;;11.70;1.35;;;8.80;99.90;;;;;;5077608;28;20020;-82
2022/11/22 10:51:53;;;;;;;12.02;1.92;;;8.80;99.90;;;;;;5095167;28;20042;-81
2022/11/22 10:54:45;;;;;;;9.07;1.63;;;8.80;99.90;;;;;;5095154;28;20028;-82
2022/11/22 10:57:34;;;;;;;11.00;1.77;;;8.80;99.90;;;;;;5076932;28;20352;-82
2022/11/22 11:00:18;;;;;;;11.35;1.52;;;8.80;99.90;;;;;;5077384;28;20032;-82
2022/11/22 11:03:21;;;;;;;8.63;0.88;;;8.80;99.90;;;;;;5095819;28;20023;-82
2022/11/22 11:06:23;;;;;;;10.13;1.60;;;8.80;99.90;;;;;;5078225;28;20032;-83
2022/11/22 11:09:03;;;;;;;6.30;1.23;;;8.80;99.90;;;;;;5098234;28;20035;-82
2022/11/22 11:11:29;;;;;;;5.55;0.77;;;8.80;99.90;;;;;;5097122;28;20026;-82
2022/11/22 11:14:06;;;;;;;4.00;0.80;;;8.80;99.90;;;;;;5077118;28;20032;-81
2022/11/22 11:16:37;;;;;;;5.07;0.63;;;8.80;99.80;;;;;;5094598;28;20024;-82
2022/11/22 11:19:15;;;;;;;5.32;0.60;;;8.80;99.90;;;;;;5094619;28;20048;-81
2022/11/22 11:21:41;;;;;;;5.80;1.08;;;8.80;99.90;;;;;;5095045;28;20484;-81
2022/11/22 11:24:19;;;;;;;5.93;0.75;;;8.70;99.60;;;;;;5059943;28;20081;-82
2022/11/22 11:26:53;;;;;;;3.33;0.40;;;8.70;99.80;;;;;;5096220;28;20093;-82
2022/11/22 11:29:29;;;;;;;3.47;0.38;;;8.70;99.70;;;;;;5062145;28;20082;-82
2022/11/22 11:32:06;;;;;;;4.90;0.75;;;8.60;99.70;;;;;;5081374;28;20036;-82
2022/11/22 11:34:33;;;;;;;3.42;0.40;;;8.70;99.90;;;;;;5094478;28;20031;-78
2022/11/22 11:37:00;;;;;;;5.97;1.55;;;8.70;99.90;;;;;;5094795;28;20084;-80
2022/11/22 11:39:30;;;;;;;2.70;0.30;;;8.80;99.90;;;;;;5079267;28;20035;-81
2022/11/22 11:41:56;;;;;;;4.97;0.52;;;8.80;99.80;;;;;;5067874;28;20039;-80
2022/11/22 11:44:33;;;;;;;5.68;0.50;;;8.80;99.60;;;;;;5080865;28;20055;-80
2022/11/22 11:47:01;;;;;;;4.40;0.50;;;8.80;99.90;;;;;;5077262;28;20055;-82
2022/11/22 11:49:31;;;;;;;3.50;0.40;;;8.80;99.90;;;;;;5060994;28;20039;-82
2022/11/22 11:52:22;;;;;;;3.50;0.40;;;8.90;99.90;;;;;;5095634;28;20036;-80
2022/11/22 11:54:52;;;;;;;2.70;0.30;;;8.90;99.70;;;;;;5076653;28;20040;-81
2022/11/22 11:57:27;;;;;;;3.00;0.98;;;8.90;99.70;;;;;;5091905;28;20047;-82
2022/11/22 11:59:55;;;;;;;4.25;0.90;;;9.00;99.30;;;;;;5075938;28;20478;-82
2022/11/22 12:02:34;;;;;;;3.22;0.40;;;9.00;99.40;;;;;;5075219;28;20073;-81
2022/11/22 12:05:06;;;;;;;4.55;0.45;;;9.00;99.20;;;;;;5093508;28;20113;-82
2022/11/22 12:07:52;;;;;;;3.90;0.30;;;9.10;99.00;;;;;;5075318;28;20126;-79
2022/11/22 12:10:44;;;;;;;2.95;0.30;;;9.10;99.20;;;;;;5075239;28;20038;-81
2022/11/22 12:13:14;;;;;;;3.05;0.30;;;9.10;98.90;;;;;;5092363;28;20131;-81
2022/11/22 12:16:08;;;;;;;3.45;0.28;;;9.20;98.70;;;;;;5075853;28;20109;-81
2022/11/22 12:18:33;;;;;;;;;;;9.20;98.70;;;;;;5076797;28;20135;-82
2022/11/22 12:21:23;;;;;;;2.17;0.22;;;9.20;98.70;;;;;;5094705;28;20008;-81
2022/11/22 12:24:31;;;;;;;1.48;0.20;;;9.20;98.80;;;;;;5094729;28;20110;-80
2022/11/22 12:26:56;;;;;;;2.08;0.25;;;9.20;98.80;;;;;;5075158;28;20032;-75
2022/11/22 12:29:22;;;;;;;1.50;0.20;;;9.30;98.50;;;;;;5075771;28;20077;-80
2022/11/22 12:32:12;;;;;;;2.10;0.30;;;9.30;98.70;;;;;;5076214;28;20473;-80
2022/11/22 12:34:57;;;;;;;1.10;0.25;;;9.30;98.50;;;;;;5094624;28;20020;-79
2022/11/22 12:37:33;;;;;;;0.60;0.10;;;9.30;98.00;;;;;;5093196;28;20460;-79
2022/11/22 12:40:04;;;;;;;1.83;0.30;;;9.30;98.20;;;;;;5075737;28;20052;-81
2022/11/22 12:42:50;;;;;;;1.85;0.20;;;9.20;98.30;;;;;;5076794;28;20032;-80
2022/11/22 12:45:28;;;;;;;3.45;0.20;;;9.10;98.10;;;;;;5077295;28;20028;-79
2022/11/22 12:47:57;;;;;;;3.47;0.22;;;9.10;98.00;;;;;;5076132;28;20128;-79
2022/11/22 12:50:53;;;;;;;2.13;0.20;;;9.10;98.30;;;;;;5075146;28;20389;-78
2022/11/22 12:53:34;;;;;;;2.15;0.10;;;9.10;98.40;;;;;;5091464;28;20028;-80
2022/11/22 12:56:09;;;;;;;1.70;0.20;;;9.10;98.40;;;;;;5075566;28;20116;-80
2022/11/22 12:58:50;;;;;;;1.33;0.20;;;9.20;98.60;;;;;;5093584;28;20024;-81
2022/11/22 13:01:24;;;;;;;1.10;0.10;;;9.20;98.60;;;;;;5093777;28;20115;-80
2022/11/22 13:03:58;;;;;;;;;;;9.20;98.30;;;;;;5094354;28;20376;-80
2022/11/22 13:06:30;;;;;;;4.22;0.20;;;9.20;98.20;;;;;;5092761;28;19915;-81
2022/11/22 13:09:09;;;;;;;3.30;0.68;;;9.20;98.20;;;;;;5075885;28;20050;-81
2022/11/22 13:11:43;;;;;;;2.17;0.13;;;9.20;97.80;;;;;;5076015;28;20032;-81
2022/11/22 13:14:17;;;;;;;2.30;0.30;;;9.20;97.80;;;;;;5094433;28;20020;-79
2022/11/22 13:16:43;;;;;;;1.48;0.20;;;9.20;98.00;;;;;;5097574;28;20061;-81
2022/11/22 13:19:15;;;;;;;2.00;0.20;;;9.10;98.20;;;;;;5063091;28;20135;-79
2022/11/22 13:22:02;;;;;;;1.67;0.50;;;9.20;98.30;;;;;;5096581;28;20016;-79